Time;durP1;ratioP1;P1;durP2;ratioP2;P2;SDS_P1;SDS_P2;PMS_P1;PMS_P2;Temp;Humidity;BMP_temperature;BMP_pressure;BME280_temperature;BME280_humidity;BME280_pressure;Samples;Min_cycle;Max_cycle;Signal;HPM_P1;HPM_P2
2023/04/18 00:00:56;;;;;;;7.93;5.10;;;;;;;;;;5012816;28;20076;-63
2023/04/18 00:03:30;;;;;;;5.78;4.35;;;;;;;;;;5013739;28;20054;-59
2023/04/18 00:06:04;;;;;;;9.02;4.18;;;;;;;;;;5012731;28;20054;-58
2023/04/18 00:08:38;;;;;;;8.52;4.72;;;;;;;;;;5013045;28;20049;-60
2023/04/18 00:11:05;;;;;;;13.75;5.65;;;;;;;;;;5009446;28;20057;-57
2023/04/18 00:13:33;;;;;;;8.77;4.85;;;;;;;;;;4999123;28;20081;-64
2023/04/18 00:16:07;;;;;;;8.98;4.93;;;;;;;;;;5007430;28;20351;-59
2023/04/18 00:18:35;;;;;;;7.95;4.60;;;;;;;;;;5000747;28;20050;-60
2023/04/18 00:21:09;;;;;;;6.97;4.55;;;;;;;;;;4996148;28;20094;-55
2023/04/18 00:23:37;;;;;;;5.93;4.53;;;;;;;;;;5011005;28;20152;-60
2023/04/18 00:26:11;;;;;;;8.82;4.85;;;;;;;;;;5011626;28;20413;-60
2023/04/18 00:28:38;;;;;;;7.78;4.97;;;;;;;;;;5010715;28;20120;-59
2023/04/18 00:31:05;;;;;;;7.65;4.38;;;;;;;;;;5010895;28;20053;-46
2023/04/18 00:33:39;;;;;;;8.10;4.57;;;;;;;;;;5013625;28;20081;-48
2023/04/18 00:36:07;;;;;;;8.10;4.68;;;;;;;;;;5012103;28;20054;-50
2023/04/18 00:38:40;;;;;;;8.73;4.93;;;;;;;;;;5010338;28;20081;-47
2023/04/18 00:41:07;;;;;;;5.60;3.90;;;;;;;;;;5011196;28;20140;-61
2023/04/18 00:43:35;;;;;;;9.48;5.25;;;;;;;;;;5010840;28;20046;-62
2023/04/18 00:46:09;;;;;;;6.68;4.53;;;;;;;;;;5010993;28;20088;-62
2023/04/18 00:48:37;;;;;;;;;;;;;;;;;;5015548;28;20062;-62
2023/04/18 00:51:09;;;;;;;9.23;5.28;;;;;;;;;;5011513;28;19953;-62
2023/04/18 00:53:44;;;;;;;9.30;5.47;;;;;;;;;;5011298;28;20129;-62
2023/04/18 00:56:11;;;;;;;10.57;4.97;;;;;;;;;;5009667;28;20143;-63
2023/04/18 00:58:45;;;;;;;9.75;5.07;;;;;;;;;;5009966;28;20073;-62
2023/04/18 01:01:12;;;;;;;9.00;5.60;;;;;;;;;;5008988;28;20780;-55
2023/04/18 01:03:40;;;;;;;;;;;;;;;;;;4986013;28;20476;-52
2023/04/18 01:06:13;;;;;;;9.00;5.05;;;;;;;;;;4990159;28;19932;-51
2023/04/18 01:08:41;;;;;;;10.27;4.97;;;;;;;;;;4987924;28;20511;-55
2023/04/18 01:11:15;;;;;;;9.52;4.82;;;;;;;;;;4990548;28;20062;-62
2023/04/18 01:13:42;;;;;;;10.40;5.60;;;;;;;;;;4990177;28;20158;-60
2023/04/18 01:16:09;;;;;;;10.30;4.95;;;;;;;;;;4991746;28;20497;-59
2023/04/18 01:18:43;;;;;;;12.07;4.40;;;;;;;;;;4978516;28;20549;-59
2023/04/18 01:21:11;;;;;;;9.38;4.88;;;;;;;;;;4989308;28;20584;-60
2023/04/18 01:23:46;;;;;;;10.23;5.10;;;;;;;;;;4975169;28;20068;-59
2023/04/18 01:26:14;;;;;;;12.02;5.57;;;;;;;;;;4985732;28;20061;-58
2023/04/18 01:28:41;;;;;;;11.25;5.40;;;;;;;;;;4985009;28;20087;-60
2023/04/18 01:31:15;;;;;;;8.75;5.60;;;;;;;;;;4985853;28;20061;-59
2023/04/18 01:33:42;;;;;;;10.07;5.50;;;;;;;;;;4985433;28;20054;-59
2023/04/18 01:36:16;;;;;;;9.07;5.10;;;;;;;;;;4989367;28;20061;-60
2023/04/18 01:38:43;;;;;;;9.30;5.63;;;;;;;;;;4985803;28;20228;-60
2023/04/18 01:41:10;;;;;;;11.25;5.32;;;;;;;;;;4985606;28;20144;-52
2023/04/18 01:43:44;;;;;;;10.18;5.72;;;;;;;;;;4987228;28;20050;-52
2023/04/18 01:46:11;;;;;;;;;;;;;;;;;;4987249;28;20062;-48
2023/04/18 01:48:45;;;;;;;11.32;5.30;;;;;;;;;;4987559;28;19926;-47
2023/04/18 01:51:19;;;;;;;13.48;5.43;;;;;;;;;;4989300;28;20140;-49
2023/04/18 01:53:46;;;;;;;11.38;5.20;;;;;;;;;;4987378;28;20054;-47
2023/04/18 01:56:20;;;;;;;10.00;5.55;;;;;;;;;;4988614;28;20089;-48
2023/04/18 01:58:47;;;;;;;10.38;5.97;;;;;;;;;;4984428;28;20683;-49
2023/04/18 02:01:14;;;;;;;10.38;5.38;;;;;;;;;;4985584;28;20081;-50
2023/04/18 02:04:01;;;;;;;8.88;4.65;;;;;;;;;;5005829;28;20046;-48
2023/04/18 02:06:28;;;;;;;12.07;5.25;;;;;;;;;;5005833;28;20526;-58
2023/04/18 02:09:02;;;;;;;10.32;5.22;;;;;;;;;;5006795;28;20049;-51
2023/04/18 02:11:29;;;;;;;12.98;6.03;;;;;;;;;;5003469;28;20141;-52
2023/04/18 02:13:58;;;;;;;12.38;5.50;;;;;;;;;;5001474;28;20053;-55
2023/04/18 02:16:33;;;;;;;9.05;5.45;;;;;;;;;;5005571;28;20674;-56
2023/04/18 02:19:03;;;;;;;8.13;4.50;;;;;;;;;;5007108;28;20068;-51
2023/04/18 02:21:36;;;;;;;9.10;4.70;;;;;;;;;;5004883;28;20046;-50
2023/04/18 02:24:03;;;;;;;9.68;5.40;;;;;;;;;;5004595;28;20049;-55
2023/04/18 02:26:31;;;;;;;10.57;5.22;;;;;;;;;;5003163;28;20058;-62
2023/04/18 02:29:04;;;;;;;10.10;5.20;;;;;;;;;;5001006;28;20212;-62
2023/04/18 02:31:31;;;;;;;11.05;5.72;;;;;;;;;;5003929;28;20058;-62
2023/04/18 02:34:05;;;;;;;9.45;5.95;;;;;;;;;;5004968;28;20429;-61
2023/04/18 02:36:32;;;;;;;7.15;4.78;;;;;;;;;;5003670;28;20061;-59
2023/04/18 02:39:00;;;;;;;12.40;5.80;;;;;;;;;;5004063;28;20476;-57
2023/04/18 02:41:36;;;;;;;11.18;6.05;;;;;;;;;;5006172;28;20471;-59
2023/04/18 02:44:03;;;;;;;10.45;5.03;;;;;;;;;;5004502;28;20131;-58
2023/04/18 02:46:30;;;;;;;11.13;5.35;;;;;;;;;;4990013;28;20485;-55
2023/04/18 02:49:06;;;;;;;9.45;5.85;;;;;;;;;;5005599;28;20133;-58
2023/04/18 02:51:33;;;;;;;13.30;6.00;;;;;;;;;;5005087;28;20140;-56
2023/04/18 02:54:07;;;;;;;10.43;5.75;;;;;;;;;;5004912;28;20512;-50
2023/04/18 02:56:38;;;;;;;9.10;5.50;;;;;;;;;;5002236;28;20792;-51
2023/04/18 02:59:06;;;;;;;10.10;5.88;;;;;;;;;;5004912;28;20207;-56
2023/04/18 03:01:52;;;;;;;12.13;5.90;;;;;;;;;;5002789;28;20045;-52
2023/04/18 03:04:26;;;;;;;12.05;5.93;;;;;;;;;;4988518;28;20058;-52
2023/04/18 03:07:00;;;;;;;9.98;5.97;;;;;;;;;;4990923;28;20141;-62
2023/04/18 03:09:27;;;;;;;10.70;6.07;;;;;;;;;;4991339;28;20076;-62
2023/04/18 03:11:54;;;;;;;8.50;5.72;;;;;;;;;;4988547;28;20153;-62
2023/04/18 03:14:28;;;;;;;9.85;5.88;;;;;;;;;;4990836;28;20417;-62
2023/04/18 03:16:55;;;;;;;10.73;5.55;;;;;;;;;;4996179;28;20132;-62
2023/04/18 03:19:30;;;;;;;9.77;5.25;;;;;;;;;;4990354;28;20050;-62
2023/04/18 03:21:58;;;;;;;11.63;6.15;;;;;;;;;;4993770;28;20584;-57
2023/04/18 03:24:25;;;;;;;12.40;6.07;;;;;;;;;;4993904;28;20054;-58
2023/04/18 03:26:59;;;;;;;14.25;5.35;;;;;;;;;;4990537;28;20052;-60
2023/04/18 03:29:33;;;;;;;8.68;5.30;;;;;;;;;;4993272;28;20057;-60
2023/04/18 03:32:07;;;;;;;10.65;5.30;;;;;;;;;;4994171;28;20052;-66
2023/04/18 03:34:41;;;;;;;11.50;6.57;;;;;;;;;;4993471;28;20051;-53
2023/04/18 03:37:22;;;;;;;13.35;7.00;;;;;;;;;;4998103;28;20466;-62
2023/04/18 03:39:49;;;;;;;10.50;6.43;;;;;;;;;;4996749;28;20052;-62
2023/04/18 03:42:23;;;;;;;9.60;6.10;;;;;;;;;;4992870;28;20137;-62
2023/04/18 03:44:50;;;;;;;11.68;6.00;;;;;;;;;;4997465;28;20424;-62
2023/04/18 03:47:17;;;;;;;11.40;6.45;;;;;;;;;;4993975;28;20058;-62
2023/04/18 03:49:53;;;;;;;10.73;6.05;;;;;;;;;;4995270;28;20088;-47
2023/04/18 03:52:20;;;;;;;15.40;6.70;;;;;;;;;;4997310;28;20077;-49
2023/04/18 03:54:56;;;;;;;12.20;5.95;;;;;;;;;;4995512;28;20058;-47
2023/04/18 03:57:23;;;;;;;9.82;5.60;;;;;;;;;;4991507;28;20078;-49
2023/04/18 03:59:50;;;;;;;9.57;5.82;;;;;;;;;;4990705;28;20060;-57
2023/04/18 04:02:37;;;;;;;10.30;6.53;;;;;;;;;;5000632;28;20137;-50
2023/04/18 04:05:11;;;;;;;11.63;5.93;;;;;;;;;;5016628;28;20054;-62
2023/04/18 04:07:45;;;;;;;12.45;5.85;;;;;;;;;;5015457;28;20056;-62
2023/04/18 04:10:19;;;;;;;10.55;5.57;;;;;;;;;;5016014;28;20136;-62
2023/04/18 04:12:53;;;;;;;9.73;5.95;;;;;;;;;;5016132;28;20081;-62
2023/04/18 04:15:20;;;;;;;13.20;5.45;;;;;;;;;;5012252;28;20053;-62
2023/04/18 04:17:47;;;;;;;9.63;5.50;;;;;;;;;;5010411;28;20071;-63
2023/04/18 04:20:25;;;;;;;12.40;5.85;;;;;;;;;;5012258;28;20046;-55
2023/04/18 04:22:52;;;;;;;8.50;5.82;;;;;;;;;;5012765;28;20077;-56
2023/04/18 04:25:32;;;;;;;11.38;5.93;;;;;;;;;;5011949;28;20390;-55
2023/04/18 04:28:01;;;;;;;18.75;6.57;;;;;;;;;;4997470;28;20148;-59
2023/04/18 04:30:37;;;;;;;9.50;5.63;;;;;;;;;;5013186;28;20067;-48
2023/04/18 04:33:05;;;;;;;13.82;6.10;;;;;;;;;;5012017;28;20093;-58
2023/04/18 04:35:35;;;;;;;9.82;5.28;;;;;;;;;;5010208;28;20054;-60
2023/04/18 04:38:11;;;;;;;7.25;5.15;;;;;;;;;;5012024;28;20050;-59
2023/04/18 04:40:38;;;;;;;10.10;5.93;;;;;;;;;;5007432;28;20058;-57
2023/04/18 04:43:05;;;;;;;10.15;5.88;;;;;;;;;;5012426;28;20140;-60
2023/04/18 04:45:40;;;;;;;9.40;5.28;;;;;;;;;;5007379;28;20053;-53
2023/04/18 04:48:08;;;;;;;7.93;5.00;;;;;;;;;;5011229;28;20611;-48
2023/04/18 04:50:40;;;;;;;7.60;4.90;;;;;;;;;;4993132;28;20628;-45
2023/04/18 04:53:14;;;;;;;9.75;4.95;;;;;;;;;;5012613;28;20262;-51
2023/04/18 04:55:41;;;;;;;9.20;5.07;;;;;;;;;;5007971;28;20056;-49
2023/04/18 04:58:15;;;;;;;7.80;4.80;;;;;;;;;;5015406;28;20069;-47
2023/04/18 05:00:42;;;;;;;7.70;4.70;;;;;;;;;;5010823;28;20152;-48
2023/04/18 05:03:10;;;;;;;10.43;4.93;;;;;;;;;;5007437;28;20408;-45
2023/04/18 05:05:44;;;;;;;8.98;5.22;;;;;;;;;;5011570;28;20061;-45
2023/04/18 05:08:11;;;;;;;8.85;4.80;;;;;;;;;;5013112;28;20412;-49
2023/04/18 05:10:38;;;;;;;10.35;5.45;;;;;;;;;;5016667;28;20144;-50
2023/04/18 05:13:12;;;;;;;14.60;5.30;;;;;;;;;;5016913;28;20473;-54
2023/04/18 05:15:39;;;;;;;9.82;5.30;;;;;;;;;;5015482;28;20416;-62
2023/04/18 05:18:07;;;;;;;7.22;4.72;;;;;;;;;;5011945;28;20591;-62
2023/04/18 05:20:41;;;;;;;8.15;4.30;;;;;;;;;;5014515;28;21761;-62
2023/04/18 05:23:08;;;;;;;7.00;4.80;;;;;;;;;;5010204;28;20129;-62
2023/04/18 05:25:36;;;;;;;9.77;4.47;;;;;;;;;;5011672;28;20050;-47
2023/04/18 05:28:09;;;;;;;10.02;5.40;;;;;;;;;;5015006;28;20049;-63
2023/04/18 05:30:36;;;;;;;9.90;5.57;;;;;;;;;;5013065;28;20081;-50
2023/04/18 05:33:10;;;;;;;8.13;5.05;;;;;;;;;;5013268;28;20052;-53
2023/04/18 05:35:37;;;;;;;10.35;6.53;;;;;;;;;;5013924;28;20057;-54
2023/04/18 05:38:05;;;;;;;12.40;6.47;;;;;;;;;;5011830;28;20696;-56
2023/04/18 05:40:38;;;;;;;12.20;6.45;;;;;;;;;;5010703;28;20061;-47
2023/04/18 05:43:05;;;;;;;18.50;6.38;;;;;;;;;;5011787;28;20159;-51
2023/04/18 05:45:39;;;;;;;13.07;5.82;;;;;;;;;;5012060;28;20075;-61
2023/04/18 05:48:06;;;;;;;8.70;5.70;;;;;;;;;;5012344;28;20420;-59
2023/04/18 05:50:34;;;;;;;15.10;6.28;;;;;;;;;;5010826;28;20089;-61
2023/04/18 05:53:07;;;;;;;9.15;5.28;;;;;;;;;;5009968;28;20820;-60
2023/04/18 05:55:34;;;;;;;10.77;6.38;;;;;;;;;;5014193;28;20478;-59
2023/04/18 05:58:08;;;;;;;9.88;5.90;;;;;;;;;;5015143;28;20068;-60
2023/04/18 06:00:35;;;;;;;8.38;5.82;;;;;;;;;;5011327;28;20053;-60
2023/04/18 06:03:02;;;;;;;9.93;5.72;;;;;;;;;;5011530;28;20045;-60
2023/04/18 06:05:44;;;;;;;11.55;6.13;;;;;;;;;;5013185;28;20050;-61
2023/04/18 06:08:11;;;;;;;11.35;6.55;;;;;;;;;;5012100;28;20065;-60
2023/04/18 06:10:45;;;;;;;13.05;6.75;;;;;;;;;;5014850;28;20049;-60
2023/04/18 06:13:12;;;;;;;19.15;7.43;;;;;;;;;;5013222;28;20060;-60
2023/04/18 06:15:40;;;;;;;12.60;6.80;;;;;;;;;;5010395;28;20408;-60
2023/04/18 06:18:13;;;;;;;10.75;5.53;;;;;;;;;;5010205;28;20058;-60
2023/04/18 06:20:42;;;;;;;9.10;4.85;;;;;;;;;;5011101;28;20374;-60
2023/04/18 06:23:09;;;;;;;9.75;5.47;;;;;;;;;;5009723;28;20593;-59
2023/04/18 06:25:43;;;;;;;7.28;3.90;;;;;;;;;;5009558;28;20059;-59
2023/04/18 06:28:10;;;;;;;11.07;5.50;;;;;;;;;;5014172;28;20149;-57
2023/04/18 06:30:44;;;;;;;10.77;5.38;;;;;;;;;;5008370;28;20057;-58
2023/04/18 06:33:11;;;;;;;10.50;5.40;;;;;;;;;;5012264;28;20049;-59
2023/04/18 06:35:39;;;;;;;11.10;5.20;;;;;;;;;;5009516;28;20054;-59
2023/04/18 06:38:12;;;;;;;8.43;4.97;;;;;;;;;;5014989;28;20069;-59
2023/04/18 06:40:39;;;;;;;9.80;4.63;;;;;;;;;;5015836;28;20108;-60
2023/04/18 06:43:13;;;;;;;7.72;4.90;;;;;;;;;;5016922;28;20567;-60
2023/04/18 06:45:40;;;;;;;8.80;4.60;;;;;;;;;;5016520;28;20046;-61
2023/04/18 06:48:09;;;;;;;8.52;4.70;;;;;;;;;;5012896;28;20053;-60
2023/04/18 06:50:43;;;;;;;7.25;4.22;;;;;;;;;;5015072;28;20137;-50
2023/04/18 06:53:11;;;;;;;8.60;4.22;;;;;;;;;;5015109;28;20084;-57
2023/04/18 06:55:45;;;;;;;7.75;3.75;;;;;;;;;;5021549;28;20504;-55
2023/04/18 06:58:12;;;;;;;;;;;;;;;;;;5012715;28;20145;-56
2023/04/18 07:00:40;;;;;;;7.85;3.47;;;;;;;;;;5015788;28;20458;-57
2023/04/18 07:03:20;;;;;;;6.88;3.42;;;;;;;;;;5015380;28;20049;-56
2023/04/18 07:05:54;;;;;;;6.32;3.90;;;;;;;;;;5012979;28;20050;-56
2023/04/18 07:08:28;;;;;;;6.65;3.65;;;;;;;;;;5016676;28;20707;-54
2023/04/18 07:10:55;;;;;;;6.63;3.60;;;;;;;;;;5015488;28;20050;-52
2023/04/18 07:13:23;;;;;;;4.55;3.30;;;;;;;;;;5016775;28;20585;-46
2023/04/18 07:15:56;;;;;;;5.57;4.03;;;;;;;;;;5014005;28;20050;-46
2023/04/18 07:18:23;;;;;;;7.88;3.38;;;;;;;;;;5014947;28;20054;-47
2023/04/18 07:21:08;;;;;;;6.10;3.30;;;;;;;;;;5014907;28;20468;-56
2023/04/18 07:23:35;;;;;;;5.22;3.08;;;;;;;;;;5012930;28;20160;-60
2023/04/18 07:26:10;;;;;;;5.65;3.20;;;;;;;;;;5013772;28;20077;-60
2023/04/18 07:28:37;;;;;;;9.75;3.10;;;;;;;;;;5016136;28;20138;-60
2023/04/18 07:31:13;;;;;;;4.53;2.13;;;;;;;;;;5015639;28;20053;-59
2023/04/18 07:33:40;;;;;;;3.15;2.30;;;;;;;;;;5012671;28;20418;-59
2023/04/18 07:36:07;;;;;;;5.30;2.40;;;;;;;;;;5014188;28;20050;-59
2023/04/18 07:38:41;;;;;;;3.85;1.80;;;;;;;;;;5015326;28;20060;-49
2023/04/18 07:41:08;;;;;;;4.47;2.20;;;;;;;;;;5001917;28;20064;-48
2023/04/18 07:43:43;;;;;;;2.22;1.70;;;;;;;;;;5013889;28;20045;-49
2023/04/18 07:46:11;;;;;;;2.95;2.03;;;;;;;;;;5015322;28;20641;-48
2023/04/18 07:48:38;;;;;;;;;;;;;;;;;;5013446;28;20529;-62
2023/04/18 07:51:12;;;;;;;3.42;1.95;;;;;;;;;;5014756;28;19929;-59
2023/04/18 07:53:42;;;;;;;3.22;1.80;;;;;;;;;;5017024;28;20619;-60
2023/04/18 07:56:16;;;;;;;3.38;1.85;;;;;;;;;;5014527;28;20038;-60
2023/04/18 07:58:43;;;;;;;1.80;1.65;;;;;;;;;;5013364;28;20125;-59
2023/04/18 08:01:14;;;;;;;2.28;1.40;;;;;;;;;;5014415;28;20058;-60
2023/04/18 08:03:56;;;;;;;2.88;1.58;;;;;;;;;;5008596;28;20052;-60
2023/04/18 08:06:25;;;;;;;2.00;1.75;;;;;;;;;;5014138;28;20058;-60
2023/04/18 08:09:02;;;;;;;2.58;1.58;;;;;;;;;;5014781;28;20049;-60
2023/04/18 08:11:29;;;;;;;3.05;1.60;;;;;;;;;;5015104;28;20065;-59
2023/04/18 08:13:56;;;;;;;3.10;1.70;;;;;;;;;;5019395;28;20343;-60
2023/04/18 08:16:30;;;;;;;2.22;1.48;;;;;;;;;;5013365;28;20529;-57
2023/04/18 08:18:57;;;;;;;1.90;1.50;;;;;;;;;;5011941;28;20037;-60
2023/04/18 08:21:32;;;;;;;3.20;1.48;;;;;;;;;;5017318;28;20534;-60
2023/04/18 08:23:59;;;;;;;1.65;1.45;;;;;;;;;;5009419;28;20273;-60
2023/04/18 08:26:26;;;;;;;4.00;2.00;;;;;;;;;;5013470;28;20072;-60
2023/04/18 08:29:00;;;;;;;2.40;1.60;;;;;;;;;;5016127;28;20045;-60
2023/04/18 08:31:27;;;;;;;1.50;1.33;;;;;;;;;;5013198;28;20053;-60
2023/04/18 08:34:02;;;;;;;2.30;1.80;;;;;;;;;;5013531;28;20489;-60
2023/04/18 08:36:31;;;;;;;3.22;1.98;;;;;;;;;;5014296;28;20084;-55
2023/04/18 08:38:58;;;;;;;1.67;1.58;;;;;;;;;;5011824;28;20169;-53
2023/04/18 08:41:36;;;;;;;1.80;1.33;;;;;;;;;;5014205;28;20522;-50
2023/04/18 08:44:03;;;;;;;3.00;1.65;;;;;;;;;;5011453;28;20046;-53
2023/04/18 08:46:31;;;;;;;;;;;;;;;;;;5000436;28;20156;-53
2023/04/18 08:49:05;;;;;;;2.97;1.73;;;;;;;;;;5015353;28;19929;-62
2023/04/18 08:51:40;;;;;;;1.55;1.38;;;;;;;;;;5013168;28;20072;-63
2023/04/18 08:54:08;;;;;;;2.08;1.70;;;;;;;;;;5013950;28;20088;-62
2023/04/18 08:56:36;;;;;;;3.00;1.80;;;;;;;;;;5011459;28;20140;-62
2023/04/18 08:59:10;;;;;;;3.95;1.60;;;;;;;;;;5017318;28;20049;-62
2023/04/18 09:01:57;;;;;;;3.08;2.10;;;;;;;;;;5009658;28;20136;-62
2023/04/18 09:04:47;;;;;;;2.92;1.90;;;;;;;;;;5012966;28;20063;-60
2023/04/18 09:07:15;;;;;;;6.38;2.05;;;;;;;;;;5013611;28;20050;-60
2023/04/18 09:09:51;;;;;;;2.60;1.60;;;;;;;;;;5013017;28;20053;-60
2023/04/18 09:12:22;;;;;;;2.78;1.70;;;;;;;;;;5011557;28;20053;-60
2023/04/18 09:15:11;;;;;;;4.07;2.25;;;;;;;;;;5010500;28;20050;-60
2023/04/18 09:17:44;;;;;;;2.10;1.70;;;;;;;;;;4997892;28;20069;-62
2023/04/18 09:20:39;;;;;;;2.20;1.67;;;;;;;;;;5010886;28;20526;-62
2023/04/18 09:23:13;;;;;;;1.50;1.27;;;;;;;;;;5014603;28;20140;-62
2023/04/18 09:25:47;;;;;;;3.10;1.55;;;;;;;;;;5014680;28;20493;-62
2023/04/18 09:28:25;;;;;;;1.98;1.40;;;;;;;;;;5008513;28;20061;-62
2023/04/18 09:31:03;;;;;;;2.45;1.63;;;;;;;;;;5013829;28;20417;-62
2023/04/18 09:33:35;;;;;;;3.90;1.27;;;;;;;;;;5012651;28;20695;-47
2023/04/18 09:36:16;;;;;;;1.58;1.25;;;;;;;;;;5013542;28;20140;-48
2023/04/18 09:38:43;;;;;;;4.88;1.52;;;;;;;;;;5011818;28;20049;-47
2023/04/18 09:41:17;;;;;;;2.58;1.67;;;;;;;;;;5013402;28;20112;-57
2023/04/18 09:43:47;;;;;;;2.42;1.27;;;;;;;;;;5012244;28;20057;-60
2023/04/18 09:46:16;;;;;;;5.20;1.45;;;;;;;;;;5010323;28;20049;-60
2023/04/18 09:48:51;;;;;;;2.55;1.40;;;;;;;;;;5011698;28;20402;-60
2023/04/18 09:51:18;;;;;;;2.45;1.33;;;;;;;;;;5016531;28;20153;-61
2023/04/18 09:53:52;;;;;;;1.85;1.25;;;;;;;;;;5008687;28;20136;-60
2023/04/18 09:56:20;;;;;;;;;;;;;;;;;;5015801;28;20054;-60
2023/04/18 09:59:04;;;;;;;2.33;1.00;;;;;;;;;;5013819;28;20017;-61
2023/04/18 10:01:31;;;;;;;1.80;1.35;;;;;;;;;;5013100;28;20061;-60
2023/04/18 10:04:12;;;;;;;2.70;1.30;;;;;;;;;;5009987;28;20511;-58
2023/04/18 10:06:41;;;;;;;1.63;1.30;;;;;;;;;;5012891;28;20513;-60
2023/04/18 10:09:15;;;;;;;1.02;0.88;;;;;;;;;;5011906;28;20071;-60
2023/04/18 10:11:43;;;;;;;2.33;1.40;;;;;;;;;;5016052;28;20078;-58
2023/04/18 10:14:10;;;;;;;;;;;;;;;;;;5014701;28;20133;-59
2023/04/18 10:16:44;;;;;;;3.03;1.20;;;;;;;;;;5011894;28;19936;-59
2023/04/18 10:19:26;;;;;;;2.88;1.13;;;;;;;;;;5009937;28;20045;-58
2023/04/18 10:22:01;;;;;;;1.52;1.08;;;;;;;;;;5008001;28;20140;-58
2023/04/18 10:24:47;;;;;;;2.33;1.40;;;;;;;;;;5008478;28;20058;-59
2023/04/18 10:27:44;;;;;;;2.50;1.40;;;;;;;;;;5012560;28;20046;-59
2023/04/18 10:30:11;;;;;;;1.63;1.05;;;;;;;;;;5004556;28;20137;-60
2023/04/18 10:32:45;;;;;;;4.75;1.10;;;;;;;;;;5011493;28;20053;-60
2023/04/18 10:35:13;;;;;;;;;;;;;;;;;;5014080;28;20614;-59
2023/04/18 10:37:58;;;;;;;1.35;1.20;;;;;;;;;;5011011;28;20036;-59
2023/04/18 10:40:32;;;;;;;1.25;1.08;;;;;;;;;;5013189;28;20137;-60
2023/04/18 10:43:06;;;;;;;6.47;1.20;;;;;;;;;;5010249;28;20050;-57
2023/04/18 10:45:35;;;;;;;2.67;1.30;;;;;;;;;;5009674;28;20136;-56
2023/04/18 10:48:22;;;;;;;1.75;0.73;;;;;;;;;;5009583;28;20053;-58
2023/04/18 10:51:15;;;;;;;1.48;1.10;;;;;;;;;;5013018;28;20054;-59
2023/04/18 10:53:51;;;;;;;1.95;1.20;;;;;;;;;;5010304;28;20109;-60
2023/04/18 10:56:31;;;;;;;2.13;0.90;;;;;;;;;;5011726;28;20489;-60
2023/04/18 10:59:00;;;;;;;1.40;1.00;;;;;;;;;;5012327;28;20053;-62
2023/04/18 11:01:36;;;;;;;3.95;1.02;;;;;;;;;;5014012;28;20061;-62
2023/04/18 11:04:11;;;;;;;4.00;1.00;;;;;;;;;;5011179;28;20121;-62
2023/04/18 11:06:56;;;;;;;1.60;0.93;;;;;;;;;;5010808;28;20077;-56
2023/04/18 11:09:23;;;;;;;;;;;;;;;;;;5010969;28;20053;-61
2023/04/18 11:12:07;;;;;;;1.58;0.98;;;;;;;;;;5010390;28;19936;-59
2023/04/18 11:14:45;;;;;;;1.80;0.82;;;;;;;;;;5009760;28;20057;-58
2023/04/18 11:17:19;;;;;;;1.40;1.10;;;;;;;;;;5014924;28;20128;-57
2023/04/18 11:19:47;;;;;;;2.65;1.02;;;;;;;;;;5009793;28;20512;-58
2023/04/18 11:22:21;;;;;;;1.48;1.25;;;;;;;;;;5009286;28;20087;-60
2023/04/18 11:24:48;;;;;;;5.82;1.23;;;;;;;;;;5013238;28;20132;-60
2023/04/18 11:27:16;;;;;;;1.27;0.68;;;;;;;;;;5019290;28;20053;-58
2023/04/18 11:29:52;;;;;;;1.55;1.00;;;;;;;;;;5016033;28;20064;-60
2023/04/18 11:32:26;;;;;;;0.98;0.88;;;;;;;;;;5013119;28;20090;-60
2023/04/18 11:34:54;;;;;;;1.08;0.90;;;;;;;;;;5013758;28;20064;-59
2023/04/18 11:37:21;;;;;;;;;;;;;;;;;;5014980;28;20136;-60
2023/04/18 11:39:56;;;;;;;2.38;1.00;;;;;;;;;;5016851;28;19925;-60
2023/04/18 11:42:34;;;;;;;1.40;1.00;;;;;;;;;;5015019;28;20390;-60
2023/04/18 11:45:02;;;;;;;1.63;1.00;;;;;;;;;;5013819;28;20092;-61
2023/04/18 11:47:30;;;;;;;1.25;0.80;;;;;;;;;;5001774;28;20141;-60
2023/04/18 11:50:06;;;;;;;1.33;0.93;;;;;;;;;;5015831;28;20065;-61
2023/04/18 11:52:34;;;;;;;2.05;1.10;;;;;;;;;;5014845;28;20085;-61
2023/04/18 11:55:19;;;;;;;1.65;1.00;;;;;;;;;;5011172;28;21128;-62
2023/04/18 11:57:51;;;;;;;3.65;1.13;;;;;;;;;;5013680;28;20482;-63
2023/04/18 12:00:38;;;;;;;1.88;1.02;;;;;;;;;;5013903;28;20140;-63
2023/04/18 12:03:16;;;;;;;3.97;1.13;;;;;;;;;;5011370;28;20057;-63
2023/04/18 12:06:04;;;;;;;1.67;0.95;;;;;;;;;;5015578;28;20104;-60
2023/04/18 12:08:31;;;;;;;1.23;0.90;;;;;;;;;;5015565;28;20058;-52
2023/04/18 12:11:05;;;;;;;1.35;0.95;;;;;;;;;;5015756;28;20580;-54
2023/04/18 12:13:32;;;;;;;3.50;1.10;;;;;;;;;;5014115;28;20064;-49
2023/04/18 12:16:06;;;;;;;2.17;1.15;;;;;;;;;;5014093;28;20049;-50
2023/04/18 12:18:34;;;;;;;2.30;0.95;;;;;;;;;;5016870;28;20213;-51
2023/04/18 12:21:08;;;;;;;6.22;0.98;;;;;;;;;;5014298;28;20057;-51
2023/04/18 12:23:37;;;;;;;1.25;0.95;;;;;;;;;;5015555;28;20219;-62
2023/04/18 12:26:06;;;;;;;2.10;1.02;;;;;;;;;;5013354;28;20088;-61
2023/04/18 12:28:39;;;;;;;1.20;1.10;;;;;;;;;;5013598;28;20061;-61
2023/04/18 12:31:13;;;;;;;1.52;0.98;;;;;;;;;;5012340;28;20145;-60
2023/04/18 12:33:49;;;;;;;2.28;1.10;;;;;;;;;;5013626;28;20049;-61
2023/04/18 12:36:22;;;;;;;1.83;0.85;;;;;;;;;;5014233;28;20059;-61
2023/04/18 12:38:56;;;;;;;1.58;0.95;;;;;;;;;;5016670;28;20144;-61
2023/04/18 12:41:30;;;;;;;3.75;1.00;;;;;;;;;;5015327;28;20061;-61
2023/04/18 12:44:05;;;;;;;3.28;0.98;;;;;;;;;;5011609;28;20257;-61
2023/04/18 12:46:32;;;;;;;1.10;0.95;;;;;;;;;;5013004;28;20085;-61
2023/04/18 12:49:07;;;;;;;1.98;0.98;;;;;;;;;;5012527;28;20468;-63
2023/04/18 12:51:34;;;;;;;5.43;1.13;;;;;;;;;;5014736;28;20112;-61
2023/04/18 12:54:01;;;;;;;1.35;1.10;;;;;;;;;;5012606;28;20045;-61
2023/04/18 12:56:35;;;;;;;4.30;1.15;;;;;;;;;;5014586;28;20133;-61
2023/04/18 12:59:02;;;;;;;2.22;1.10;;;;;;;;;;5014481;28;20144;-61
2023/04/18 13:01:36;;;;;;;2.40;1.10;;;;;;;;;;5012726;28;20494;-63
2023/04/18 13:04:10;;;;;;;3.35;0.95;;;;;;;;;;5012682;28;20057;-54
2023/04/18 13:06:44;;;;;;;2.10;0.70;;;;;;;;;;5013112;28;20049;-54
2023/04/18 13:09:11;;;;;;;1.67;1.02;;;;;;;;;;5012537;28;20411;-54
2023/04/18 13:11:39;;;;;;;1.63;0.90;;;;;;;;;;5013515;28;20069;-54
2023/04/18 13:14:15;;;;;;;2.03;0.95;;;;;;;;;;5015190;28;20137;-54
2023/04/18 13:16:43;;;;;;;1.90;1.15;;;;;;;;;;5013898;28;20080;-57
2023/04/18 13:19:16;;;;;;;5.40;1.20;;;;;;;;;;5012866;28;20049;-53
2023/04/18 13:21:44;;;;;;;10.55;1.20;;;;;;;;;;5014333;28;20056;-55
2023/04/18 13:24:13;;;;;;;2.00;1.00;;;;;;;;;;5013733;28;20060;-54
2023/04/18 13:26:46;;;;;;;2.80;1.20;;;;;;;;;;5013414;28;20089;-54
2023/04/18 13:29:13;;;;;;;2.08;1.00;;;;;;;;;;5013513;28;20526;-61
2023/04/18 13:31:47;;;;;;;2.15;0.80;;;;;;;;;;5010066;28;20607;-61
2023/04/18 13:34:29;;;;;;;1.50;0.85;;;;;;;;;;5013539;28;20511;-48
2023/04/18 13:37:10;;;;;;;1.33;0.90;;;;;;;;;;5011730;28;20059;-47
2023/04/18 13:39:37;;;;;;;1.17;0.85;;;;;;;;;;5014122;28;20140;-52
2023/04/18 13:42:11;;;;;;;3.10;1.38;;;;;;;;;;5007589;28;20403;-53
2023/04/18 13:44:42;;;;;;;2.15;1.00;;;;;;;;;;5014036;28;20049;-55
2023/04/18 13:47:09;;;;;;;2.05;0.95;;;;;;;;;;5010955;28;20057;-53
2023/04/18 13:49:42;;;;;;;1.38;0.90;;;;;;;;;;5010659;28;20057;-52
2023/04/18 13:52:09;;;;;;;2.55;0.82;;;;;;;;;;5012706;28;20477;-55
2023/04/18 13:54:37;;;;;;;1.25;1.00;;;;;;;;;;5009822;28;20049;-56
2023/04/18 13:57:10;;;;;;;1.45;0.93;;;;;;;;;;5008911;28;20053;-52
2023/04/18 13:59:39;;;;;;;1.85;1.00;;;;;;;;;;5017947;28;20053;-57
2023/04/18 14:02:13;;;;;;;3.40;0.90;;;;;;;;;;5011856;28;20107;-59
2023/04/18 14:04:47;;;;;;;4.32;1.15;;;;;;;;;;5009176;28;20293;-61
2023/04/18 14:07:22;;;;;;;3.70;1.00;;;;;;;;;;5014228;28;20068;-60
2023/04/18 14:09:55;;;;;;;1.92;1.10;;;;;;;;;;5010471;28;20054;-60
2023/04/18 14:12:28;;;;;;;2.75;1.10;;;;;;;;;;5010052;28;20061;-61
2023/04/18 14:14:56;;;;;;;2.15;0.90;;;;;;;;;;5014320;28;20083;-60
2023/04/18 14:17:29;;;;;;;0.95;0.82;;;;;;;;;;5013297;28;20144;-62
2023/04/18 14:20:04;;;;;;;1.52;0.90;;;;;;;;;;5014517;28;20045;-62
2023/04/18 14:22:31;;;;;;;1.83;0.88;;;;;;;;;;5012376;28;20054;-61
2023/04/18 14:24:58;;;;;;;1.45;1.20;;;;;;;;;;5013731;28;20041;-61
2023/04/18 14:27:32;;;;;;;5.05;0.90;;;;;;;;;;5009778;28;20109;-56
2023/04/18 14:30:07;;;;;;;1.33;0.95;;;;;;;;;;5012968;28;20052;-60
2023/04/18 14:32:35;;;;;;;2.10;0.95;;;;;;;;;;5001473;28;20061;-60
2023/04/18 14:35:09;;;;;;;2.45;1.23;;;;;;;;;;5012446;28;20050;-60
2023/04/18 14:37:36;;;;;;;1.33;0.70;;;;;;;;;;4996541;28;20064;-61
2023/04/18 14:40:04;;;;;;;0.93;0.75;;;;;;;;;;5012348;28;20076;-60
2023/04/18 14:42:37;;;;;;;1.42;1.00;;;;;;;;;;5013240;28;20112;-62
2023/04/18 14:45:07;;;;;;;1.13;1.00;;;;;;;;;;5015078;28;20144;-62
2023/04/18 14:47:40;;;;;;;2.00;1.35;;;;;;;;;;5015331;28;20109;-62
2023/04/18 14:50:10;;;;;;;4.55;1.10;;;;;;;;;;5010515;28;20048;-62
2023/04/18 14:52:38;;;;;;;3.45;0.98;;;;;;;;;;5015721;28;20483;-62
2023/04/18 14:55:11;;;;;;;4.93;1.23;;;;;;;;;;5013629;28;20505;-50
2023/04/18 14:57:39;;;;;;;5.63;1.20;;;;;;;;;;5010978;28;20053;-62
2023/04/18 15:00:13;;;;;;;1.95;1.08;;;;;;;;;;5018777;28;20294;-62
2023/04/18 15:02:40;;;;;;;1.50;1.00;;;;;;;;;;5015744;28;20501;-62
2023/04/18 15:05:08;;;;;;;;;;;;;;;;;;5018357;28;20046;-62
2023/04/18 15:07:43;;;;;;;3.33;1.15;;;;;;;;;;5015902;28;19921;-62
2023/04/18 15:10:11;;;;;;;1.38;0.80;;;;;;;;;;5017829;28;20146;-62